Terminal Aerodrome Forecast
Issued by NWS

Home | Current Version | Previous Version | Text Only | Print | Product List | Glossary On
Versions: 1 2 3 4 5 6 7 8 9 10 11 12 13
000
FTUS43 KMPX 051731
TAFRWF
TAF
KRWF 051731Z 0518/0618 18017G26KT P6SM FEW060 BKN250
     FM060100 15014KT P6SM VCSH SCT045 BKN150
     FM060400 14010KT 5SM -TSRA OVC045CB
      TEMPO 0604/0607 27030G45KT 3/4SM +TSRA OVC020CB
     FM060800 14010KT 2SM SHRA BR VCTS BKN020CB OVC060
     FM061400 34010KT 4SM -SHRA BR BKN009 OVC025=

USA.gov is the U.S. government's official web portal to all federal, state and local government web resources and services.